createdAt,value
2018-06-27T00:00:24.066Z,19.20
2018-06-27T00:01:24.067Z,19.30
2018-06-27T00:02:24.067Z,18.50
2018-06-27T00:03:24.079Z,18.40
2018-06-27T00:04:24.096Z,19.40
2018-06-27T00:05:24.069Z,20.10
2018-06-27T00:06:24.070Z,19.50
2018-06-27T00:07:24.073Z,18.10
2018-06-27T00:08:24.069Z,18.30
2018-06-27T00:09:24.273Z,19.10
2018-06-27T00:10:24.071Z,18.30
2018-06-27T00:11:24.277Z,17.30
2018-06-27T00:12:24.285Z,17.70
2018-06-27T00:13:24.087Z,18.60
2018-06-27T00:14:24.074Z,18.40
2018-06-27T00:15:24.077Z,18.60
2018-06-27T00:16:24.292Z,19.10
2018-06-27T00:17:24.088Z,19.00
2018-06-27T00:18:24.106Z,18.90
2018-06-27T00:19:24.141Z,18.70
2018-06-27T00:20:24.100Z,18.00
2018-06-27T00:21:24.080Z,18.70
2018-06-27T00:22:24.080Z,17.60
2018-06-27T00:23:24.082Z,18.20
2018-06-27T00:24:24.281Z,18.70
2018-06-27T00:25:24.291Z,19.00
2018-06-27T00:26:24.296Z,17.80
2018-06-27T00:27:24.292Z,17.60
2018-06-27T00:28:24.089Z,18.20
2018-06-27T00:29:24.285Z,17.60
2018-06-27T00:30:24.079Z,16.70
2018-06-27T00:31:24.080Z,17.00
2018-06-27T00:32:24.284Z,17.00
2018-06-27T00:33:24.296Z,17.50
2018-06-27T00:34:24.093Z,17.50
2018-06-27T00:35:24.091Z,19.70
2018-06-27T00:36:24.284Z,17.80
2018-06-27T00:37:24.295Z,19.40
2018-06-27T00:38:24.080Z,18.90
2018-06-27T00:39:24.083Z,18.20
2018-06-27T00:40:24.101Z,19.00
2018-06-27T00:41:24.083Z,17.70
2018-06-27T00:42:24.082Z,18.30
2018-06-27T00:43:24.082Z,18.60
2018-06-27T00:44:24.084Z,17.70
2018-06-27T00:45:24.289Z,17.00
2018-06-27T00:46:24.086Z,17.10
2018-06-27T00:47:24.087Z,17.50
2018-06-27T00:48:24.084Z,18.00
2018-06-27T00:49:24.085Z,17.50
2018-06-27T00:50:24.084Z,17.60
2018-06-27T00:51:24.304Z,16.80
2018-06-27T00:52:24.085Z,17.90
2018-06-27T00:53:24.088Z,16.00
2018-06-27T00:54:24.086Z,17.50
2018-06-27T00:55:24.086Z,17.10
2018-06-27T00:56:24.288Z,17.40
2018-06-27T00:57:24.086Z,16.80
2018-06-27T00:58:24.089Z,16.60
2018-06-27T00:59:24.098Z,18.10
2018-06-27T01:00:24.088Z,17.00
2018-06-27T01:01:24.100Z,17.00
2018-06-27T01:02:24.087Z,16.50
2018-06-27T01:03:24.091Z,16.00
2018-06-27T01:04:24.099Z,15.80
2018-06-27T01:05:24.089Z,16.30
2018-06-27T01:06:24.290Z,16.50
2018-06-27T01:07:24.088Z,16.60
2018-06-27T01:08:24.091Z,17.20
2018-06-27T01:09:24.089Z,18.90
2018-06-27T01:10:24.293Z,18.80
2018-06-27T01:11:24.102Z,20.70
2018-06-27T01:12:24.292Z,19.00
2018-06-27T01:13:24.089Z,18.10
2018-06-27T01:14:24.293Z,18.00
2018-06-27T01:15:24.091Z,18.10
2018-06-27T01:16:24.294Z,18.70
2018-06-27T01:17:24.091Z,20.20
2018-06-27T01:18:24.089Z,19.60
2018-06-27T01:19:24.093Z,21.90
2018-06-27T01:20:24.095Z,21.30
2018-06-27T01:21:24.092Z,20.10
2018-06-27T01:22:24.091Z,19.40
2018-06-27T01:23:24.097Z,19.20
2018-06-27T01:24:24.293Z,19.00
2018-06-27T01:25:24.092Z,18.40
2018-06-27T01:26:24.307Z,19.10
2018-06-27T01:27:24.092Z,19.80
2018-06-27T01:28:24.304Z,18.60
2018-06-27T01:29:24.106Z,20.10
2018-06-27T01:30:24.092Z,21.10
2018-06-27T01:31:24.096Z,20.60
2018-06-27T01:32:24.092Z,20.40
2018-06-27T01:33:24.308Z,17.70
2018-06-27T01:34:24.300Z,21.50
2018-06-27T01:35:24.295Z,18.50
2018-06-27T01:36:24.296Z,21.00
2018-06-27T01:37:24.100Z,20.00
2018-06-27T01:38:24.094Z,19.80
2018-06-27T01:39:24.096Z,20.60
2018-06-27T01:40:24.094Z,19.90
2018-06-27T01:41:24.104Z,20.40
2018-06-27T01:42:24.107Z,20.40
2018-06-27T01:43:24.097Z,21.10
2018-06-27T01:44:24.103Z,20.80
2018-06-27T01:45:24.098Z,22.60
2018-06-27T01:46:24.097Z,21.10
2018-06-27T01:47:24.298Z,22.80
2018-06-27T01:48:24.095Z,22.60
2018-06-27T01:49:24.301Z,23.30
2018-06-27T01:50:24.108Z,24.20
2018-06-27T01:51:24.310Z,21.60
2018-06-27T01:52:24.107Z,22.40
2018-06-27T01:53:24.093Z,24.40
2018-06-27T01:54:24.096Z,23.50
2018-06-27T01:55:24.096Z,23.80
2018-06-27T01:56:24.096Z,25.50
2018-06-27T01:57:24.311Z,24.30
2018-06-27T01:58:24.094Z,25.60
2018-06-27T01:59:24.097Z,27.50
2018-06-27T02:00:24.112Z,24.30
2018-06-27T02:01:24.111Z,25.30
2018-06-27T02:02:24.097Z,27.80
2018-06-27T02:03:24.299Z,25.00
2018-06-27T02:04:24.112Z,28.60
2018-06-27T02:05:24.111Z,26.60
2018-06-27T02:06:24.098Z,27.50
2018-06-27T02:07:24.112Z,25.50
2018-06-27T02:08:24.095Z,23.40
2018-06-27T02:09:24.100Z,26.50
2018-06-27T02:10:24.302Z,22.80
2018-06-27T02:11:24.314Z,24.20
2018-06-27T02:12:24.112Z,25.60
2018-06-27T02:13:24.120Z,22.90
2018-06-27T02:14:24.109Z,22.30
2018-06-27T02:15:24.110Z,21.20
2018-06-27T02:16:24.100Z,22.60
2018-06-27T02:17:24.102Z,21.50
2018-06-27T02:18:24.101Z,21.20
2018-06-27T02:19:24.112Z,22.70
2018-06-27T02:20:24.117Z,23.50
2018-06-27T02:21:24.101Z,22.10
2018-06-27T02:22:24.129Z,24.70
2018-06-27T02:23:24.317Z,23.00
2018-06-27T02:24:24.104Z,21.40
2018-06-27T02:25:24.104Z,21.00
2018-06-27T02:26:24.102Z,24.20
2018-06-27T02:27:24.164Z,22.60
2018-06-27T02:28:24.306Z,23.10
2018-06-27T02:29:24.104Z,25.20
2018-06-27T02:30:24.122Z,25.30
2018-06-27T02:31:24.115Z,30.60
2018-06-27T02:32:24.308Z,24.80
2018-06-27T02:33:24.318Z,30.20
2018-06-27T02:34:24.313Z,25.30
2018-06-27T02:35:24.110Z,22.80
2018-06-27T02:36:24.121Z,25.00
2018-06-27T02:37:24.316Z,23.50
2018-06-27T02:38:24.135Z,24.70
2018-06-27T02:39:24.120Z,24.40
2018-06-27T02:40:24.316Z,25.50
2018-06-27T02:41:24.315Z,24.80
2018-06-27T02:42:24.121Z,23.20
2018-06-27T02:43:24.111Z,23.90
2018-06-27T02:44:24.316Z,22.60
2018-06-27T02:45:24.111Z,26.20
2018-06-27T02:46:24.314Z,25.70
2018-06-27T02:47:24.128Z,23.30
2018-06-27T02:48:24.126Z,22.90
2018-06-27T02:49:24.113Z,22.60
2018-06-27T02:50:24.124Z,22.80
2018-06-27T02:51:24.126Z,22.50
2018-06-27T02:52:24.144Z,23.20
2018-06-27T02:53:24.319Z,22.10
2018-06-27T02:54:24.118Z,23.30
2018-06-27T02:55:24.319Z,24.00
2018-06-27T02:56:24.341Z,22.80
2018-06-27T02:57:24.118Z,23.40
2018-06-27T02:58:24.132Z,22.10
2018-06-27T02:59:24.121Z,21.90
2018-06-27T03:00:24.132Z,22.10
2018-06-27T03:01:24.130Z,22.60
2018-06-27T03:02:24.177Z,21.40
2018-06-27T03:03:24.125Z,21.60
2018-06-27T03:04:24.124Z,22.10
2018-06-27T03:05:24.134Z,20.80
2018-06-27T03:06:24.352Z,20.80
2018-06-27T03:07:24.140Z,23.20
2018-06-27T03:08:24.331Z,21.40
2018-06-27T03:09:24.141Z,21.40
2018-06-27T03:10:24.130Z,22.40
2018-06-27T03:11:24.333Z,21.40
2018-06-27T03:12:24.145Z,21.70
2018-06-27T03:13:24.342Z,22.20
2018-06-27T03:14:24.132Z,21.10
2018-06-27T03:15:24.155Z,21.80
2018-06-27T03:16:24.356Z,21.50
2018-06-27T03:17:24.338Z,21.60
2018-06-27T03:18:24.354Z,21.70
2018-06-27T03:19:24.339Z,21.90
2018-06-27T03:20:24.157Z,22.30
2018-06-27T03:21:24.147Z,21.80
2018-06-27T03:22:24.138Z,20.70
2018-06-27T03:23:24.347Z,20.70
2018-06-27T03:24:24.138Z,20.60
2018-06-27T03:25:24.155Z,22.10
2018-06-27T03:26:24.158Z,21.90
2018-06-27T03:27:24.142Z,20.70
2018-06-27T03:28:24.148Z,20.50
2018-06-27T03:29:24.152Z,21.70
2018-06-27T03:30:24.149Z,21.80
2018-06-27T03:31:24.157Z,22.80
2018-06-27T03:32:24.351Z,23.50
2018-06-27T03:33:24.358Z,22.70
2018-06-27T03:34:24.145Z,21.30
2018-06-27T03:35:24.363Z,23.60
2018-06-27T03:36:24.364Z,22.30
2018-06-27T03:37:24.353Z,23.30
2018-06-27T03:38:24.160Z,23.40
2018-06-27T03:39:24.159Z,22.50
2018-06-27T03:40:24.159Z,21.00
2018-06-27T03:41:24.153Z,22.20
2018-06-27T03:42:24.153Z,22.80
2018-06-27T03:43:24.164Z,22.70
2018-06-27T03:44:24.359Z,22.30
2018-06-27T03:45:24.151Z,23.50
2018-06-27T03:46:24.155Z,24.50
2018-06-27T03:47:24.156Z,22.10
2018-06-27T03:48:24.154Z,26.10
2018-06-27T03:49:24.371Z,22.60
2018-06-27T03:50:24.388Z,22.20
2018-06-27T03:51:24.174Z,23.20
2018-06-27T03:52:24.171Z,21.00
2018-06-27T03:53:24.169Z,23.50
2018-06-27T03:54:24.173Z,22.40
2018-06-27T03:55:24.160Z,20.90
2018-06-27T03:56:24.170Z,23.00
2018-06-27T03:57:24.164Z,22.10
2018-06-27T03:58:24.164Z,21.90
2018-06-27T03:59:24.382Z,25.90
2018-06-27T04:00:24.166Z,21.10
2018-06-27T04:01:24.168Z,20.00
2018-06-27T04:02:24.377Z,21.50
2018-06-27T04:03:24.167Z,21.40
2018-06-27T04:04:24.369Z,21.30
2018-06-27T04:05:24.180Z,20.50
2018-06-27T04:06:24.388Z,21.80
2018-06-27T04:07:24.182Z,20.30
2018-06-27T04:08:24.171Z,19.00
2018-06-27T04:09:24.181Z,19.20
2018-06-27T04:10:24.187Z,20.00
2018-06-27T04:11:24.376Z,20.40
2018-06-27T04:12:24.179Z,19.20
2018-06-27T04:13:24.414Z,20.70
2018-06-27T04:14:24.385Z,21.40
2018-06-27T04:15:24.379Z,21.40
2018-06-27T04:16:24.179Z,20.60
2018-06-27T04:17:24.183Z,20.60
2018-06-27T04:18:24.188Z,20.60
2018-06-27T04:19:24.384Z,20.00
2018-06-27T04:20:24.192Z,20.40
2018-06-27T04:21:24.185Z,20.80
2018-06-27T04:22:24.183Z,20.30
2018-06-27T04:23:24.184Z,19.90
2018-06-27T04:24:24.391Z,20.20
2018-06-27T04:25:24.199Z,20.00
2018-06-27T04:26:24.184Z,19.50
2018-06-27T04:27:24.189Z,20.60
2018-06-27T04:28:24.201Z,19.50
2018-06-27T04:29:24.188Z,19.70
2018-06-27T04:30:24.187Z,20.90
2018-06-27T04:31:24.188Z,20.00
2018-06-27T04:32:24.192Z,20.00
2018-06-27T04:33:24.191Z,19.90
2018-06-27T04:34:24.192Z,19.70
2018-06-27T04:35:24.191Z,19.10
2018-06-27T04:36:24.205Z,19.40
2018-06-27T04:37:24.195Z,20.70
2018-06-27T04:38:24.194Z,19.20
2018-06-27T04:39:24.201Z,19.80
2018-06-27T04:40:24.196Z,20.80
2018-06-27T04:41:24.399Z,21.30
2018-06-27T04:42:24.198Z,22.20
2018-06-27T04:43:24.212Z,22.00
2018-06-27T04:44:24.208Z,21.40
2018-06-27T04:45:24.199Z,20.00
2018-06-27T04:46:24.204Z,19.10
2018-06-27T04:47:24.202Z,19.70
2018-06-27T04:48:24.214Z,19.80
2018-06-27T04:49:24.305Z,19.60
2018-06-27T04:50:24.221Z,19.70
2018-06-27T04:51:24.206Z,19.40
2018-06-27T04:52:24.217Z,19.00
2018-06-27T04:53:24.209Z,19.90
2018-06-27T04:54:24.412Z,17.80
2018-06-27T04:55:24.220Z,18.40
2018-06-27T04:56:24.227Z,18.50
2018-06-27T04:57:24.212Z,17.80
2018-06-27T04:58:24.214Z,17.40
2018-06-27T04:59:24.220Z,17.10
2018-06-27T05:00:24.220Z,17.20
2018-06-27T05:01:24.220Z,18.90
2018-06-27T05:02:24.221Z,17.20
2018-06-27T05:03:24.225Z,16.80
2018-06-27T05:04:24.222Z,17.60
2018-06-27T05:05:24.234Z,17.00
2018-06-27T05:06:24.427Z,17.10
2018-06-27T05:07:24.245Z,16.40
2018-06-27T05:08:24.226Z,16.50
2018-06-27T05:09:24.229Z,18.10
2018-06-27T05:10:24.246Z,17.20
2018-06-27T05:11:24.229Z,18.70
2018-06-27T05:12:24.245Z,17.70
2018-06-27T05:13:24.245Z,18.00
2018-06-27T05:14:24.262Z,15.90
2018-06-27T05:15:24.236Z,17.40
2018-06-27T05:16:24.236Z,17.00
2018-06-27T05:17:24.238Z,16.30
2018-06-27T05:18:24.244Z,16.50
2018-06-27T05:19:24.253Z,16.60
2018-06-27T05:20:24.241Z,16.20
2018-06-27T05:21:24.457Z,15.80
2018-06-27T05:22:24.249Z,17.60
2018-06-27T05:23:24.248Z,16.30
2018-06-27T05:24:24.246Z,16.70
2018-06-27T05:25:24.246Z,16.80
2018-06-27T05:26:24.248Z,16.70
2018-06-27T05:27:24.329Z,15.80
2018-06-27T05:28:24.465Z,16.00
2018-06-27T05:29:24.255Z,15.60
2018-06-27T05:30:24.254Z,16.10
2018-06-27T05:31:24.256Z,16.60
2018-06-27T05:32:24.296Z,15.90
2018-06-27T05:33:24.266Z,16.90
2018-06-27T05:34:24.464Z,17.10
2018-06-27T05:35:24.261Z,17.70
2018-06-27T05:36:24.261Z,16.70
2018-06-27T05:37:24.271Z,17.20
2018-06-27T05:38:24.262Z,17.10
2018-06-27T05:39:24.264Z,18.20
2018-06-27T05:40:24.479Z,17.00
2018-06-27T05:41:24.471Z,18.90
2018-06-27T05:42:24.480Z,17.50
2018-06-27T05:43:24.269Z,19.00
2018-06-27T05:44:24.333Z,19.40
2018-06-27T05:45:24.275Z,20.30
2018-06-27T05:46:24.479Z,19.10
2018-06-27T05:47:24.286Z,18.00
2018-06-27T05:48:24.488Z,19.90
2018-06-27T05:49:24.290Z,18.90
2018-06-27T05:50:24.480Z,19.40
2018-06-27T05:51:24.280Z,20.50
2018-06-27T05:52:24.494Z,21.00
2018-06-27T05:53:24.282Z,21.20
2018-06-27T05:54:24.283Z,19.80
2018-06-27T05:55:24.487Z,20.00
2018-06-27T05:56:24.295Z,20.00
2018-06-27T05:57:24.330Z,20.10
2018-06-27T05:58:24.370Z,20.20
2018-06-27T05:59:24.300Z,19.40
2018-06-27T06:00:24.500Z,20.00
2018-06-27T06:01:24.492Z,20.70
2018-06-27T06:02:24.307Z,20.30
2018-06-27T06:03:24.292Z,20.80
2018-06-27T06:04:24.348Z,20.00
2018-06-27T06:05:24.498Z,20.70
2018-06-27T06:06:24.505Z,20.50
2018-06-27T06:07:24.519Z,19.70
2018-06-27T06:08:24.306Z,20.00
2018-06-27T06:09:24.298Z,19.80
2018-06-27T06:10:24.504Z,20.00
2018-06-27T06:11:24.327Z,19.80
2018-06-27T06:12:24.562Z,19.00
2018-06-27T06:13:24.333Z,20.90
2018-06-27T06:14:24.304Z,18.30
2018-06-27T06:15:24.509Z,19.30
2018-06-27T06:16:24.308Z,19.10
2018-06-27T06:17:24.310Z,18.60
2018-06-27T06:18:24.514Z,18.60
2018-06-27T06:19:24.309Z,19.00
2018-06-27T06:20:24.316Z,18.70
2018-06-27T06:21:24.529Z,19.50
2018-06-27T06:22:24.338Z,19.00
2018-06-27T06:23:24.316Z,18.90
2018-06-27T06:24:24.318Z,18.60
2018-06-27T06:25:24.366Z,18.10
2018-06-27T06:26:24.330Z,17.60
2018-06-27T06:27:24.323Z,16.60
2018-06-27T06:28:24.524Z,17.40
2018-06-27T06:29:24.524Z,17.10
2018-06-27T06:30:24.323Z,16.80
2018-06-27T06:31:24.325Z,16.60
2018-06-27T06:32:24.330Z,16.40
2018-06-27T06:33:24.529Z,16.10
2018-06-27T06:34:24.340Z,16.80
2018-06-27T06:35:24.546Z,15.80
2018-06-27T06:36:24.371Z,16.10
2018-06-27T06:37:24.338Z,16.40
2018-06-27T06:38:24.342Z,16.30
2018-06-27T06:39:24.351Z,16.60
2018-06-27T06:40:24.341Z,15.60
2018-06-27T06:41:24.362Z,14.90
2018-06-27T06:42:24.337Z,15.40
2018-06-27T06:43:24.357Z,15.80
2018-06-27T06:44:24.343Z,15.80
2018-06-27T06:45:24.343Z,15.80
2018-06-27T06:46:24.355Z,15.90
2018-06-27T06:47:24.345Z,15.80
2018-06-27T06:48:24.345Z,15.60
2018-06-27T06:49:24.347Z,16.00
2018-06-27T06:50:24.363Z,15.40
2018-06-27T06:51:24.365Z,15.00
2018-06-27T06:52:24.367Z,14.90
2018-06-27T06:53:24.356Z,15.20
2018-06-27T06:54:24.387Z,14.40
2018-06-27T06:55:24.371Z,14.80
2018-06-27T06:56:24.384Z,14.40
2018-06-27T06:57:24.575Z,15.40
2018-06-27T06:58:24.360Z,14.40
2018-06-27T06:59:24.366Z,14.00
2018-06-27T07:00:24.364Z,14.00
2018-06-27T07:01:24.376Z,15.10
2018-06-27T07:02:24.370Z,13.10
2018-06-27T07:03:24.369Z,13.90
2018-06-27T07:04:24.574Z,14.20
2018-06-27T07:05:24.372Z,13.40
2018-06-27T07:06:24.384Z,13.80
2018-06-27T07:07:24.375Z,12.10
2018-06-27T07:08:24.378Z,11.50
2018-06-27T07:09:24.379Z,11.20
2018-06-27T07:10:24.389Z,11.90
2018-06-27T07:11:24.546Z,12.30
2018-06-27T07:12:24.396Z,13.30
2018-06-27T07:13:24.588Z,13.00
2018-06-27T07:14:24.387Z,12.80
2018-06-27T07:15:24.393Z,13.80
2018-06-27T07:16:24.410Z,12.80
2018-06-27T07:17:24.392Z,12.50
2018-06-27T07:18:24.395Z,12.30
2018-06-27T07:19:24.598Z,11.50
2018-06-27T07:20:24.399Z,11.70
2018-06-27T07:21:24.399Z,12.20
2018-06-27T07:22:24.401Z,13.70
2018-06-27T07:23:24.404Z,12.70
2018-06-27T07:24:24.418Z,12.50
2018-06-27T07:25:24.405Z,13.00
2018-06-27T07:26:24.408Z,13.90
2018-06-27T07:27:24.630Z,13.80
2018-06-27T07:28:24.638Z,13.90
2018-06-27T07:29:24.425Z,15.40
2018-06-27T07:30:24.415Z,13.80
2018-06-27T07:31:24.418Z,13.60
2018-06-27T07:32:24.637Z,12.70
2018-06-27T07:33:24.421Z,13.70
2018-06-27T07:34:24.638Z,17.40
2018-06-27T07:35:24.436Z,16.30
2018-06-27T07:36:24.439Z,17.50
2018-06-27T07:37:24.439Z,13.90
2018-06-27T07:38:24.636Z,14.80
2018-06-27T07:39:24.664Z,13.00
2018-06-27T07:40:24.650Z,13.40
2018-06-27T07:41:24.652Z,13.80
2018-06-27T07:42:24.465Z,11.70
2018-06-27T07:43:24.459Z,11.70
2018-06-27T07:44:24.480Z,12.50
2018-06-27T07:45:24.473Z,11.90
2018-06-27T07:46:24.465Z,11.90
2018-06-27T07:47:24.456Z,11.90
2018-06-27T07:48:24.455Z,15.50
2018-06-27T07:49:24.457Z,11.10
2018-06-27T07:50:24.459Z,12.40
2018-06-27T07:51:24.463Z,11.60
2018-06-27T07:52:24.463Z,11.10
2018-06-27T07:53:24.465Z,12.20
2018-06-27T07:54:24.478Z,15.90
2018-06-27T07:55:24.478Z,14.00
2018-06-27T07:56:24.478Z,14.00
2018-06-27T07:57:24.490Z,11.20
2018-06-27T07:58:24.489Z,14.10
2018-06-27T07:59:24.506Z,10.80
2018-06-27T08:00:24.496Z,11.00
2018-06-27T08:01:24.484Z,11.10
2018-06-27T08:02:24.489Z,11.20
2018-06-27T08:03:24.490Z,11.50
2018-06-27T08:04:24.500Z,13.90
2018-06-27T08:05:24.508Z,12.50
2018-06-27T08:06:24.703Z,11.70
2018-06-27T08:07:24.501Z,12.90
2018-06-27T08:08:24.707Z,14.20
2018-06-27T08:09:24.504Z,12.00
2018-06-27T08:10:24.507Z,12.30
2018-06-27T08:11:24.509Z,11.70
2018-06-27T08:12:24.542Z,10.90
2018-06-27T08:13:24.528Z,12.90
2018-06-27T08:14:24.519Z,12.90
2018-06-27T08:15:24.534Z,10.00
2018-06-27T08:16:24.525Z,10.60
2018-06-27T08:17:24.745Z,11.20
2018-06-27T08:18:24.750Z,12.00
2018-06-27T08:19:24.533Z,9.80
2018-06-27T08:20:24.738Z,10.10
2018-06-27T08:21:24.753Z,12.00
2018-06-27T08:22:24.750Z,12.90
2018-06-27T08:23:24.557Z,12.40
2018-06-27T08:24:24.762Z,12.30
2018-06-27T08:25:24.553Z,12.60
2018-06-27T08:26:24.898Z,10.90
2018-06-27T08:27:24.575Z,11.10
2018-06-27T08:28:24.768Z,9.80
2018-06-27T08:29:24.767Z,11.30
2018-06-27T08:30:24.586Z,10.80
2018-06-27T08:31:24.571Z,12.60
2018-06-27T08:32:24.583Z,10.30
2018-06-27T08:33:24.576Z,12.70
2018-06-27T08:34:24.581Z,12.40
2018-06-27T08:35:24.786Z,13.00
2018-06-27T08:36:24.598Z,14.20
2018-06-27T08:37:24.587Z,11.40
2018-06-27T08:38:24.592Z,10.60
2018-06-27T08:39:24.621Z,11.90
2018-06-27T08:40:24.809Z,12.90
2018-06-27T08:41:24.602Z,10.70
2018-06-27T08:42:24.803Z,10.60
2018-06-27T08:43:24.606Z,10.80
2018-06-27T08:44:24.668Z,12.30
2018-06-27T08:45:24.611Z,10.80
2018-06-27T08:46:24.626Z,10.10
2018-06-27T08:47:24.617Z,10.70
2018-06-27T08:48:24.836Z,11.20
2018-06-27T08:49:24.639Z,11.90
2018-06-27T08:50:24.628Z,10.50
2018-06-27T08:51:24.843Z,15.30
2018-06-27T08:52:24.634Z,11.40
2018-06-27T08:53:24.634Z,10.80
2018-06-27T08:54:24.638Z,13.60
2018-06-27T08:55:24.653Z,10.60
2018-06-27T08:56:24.653Z,12.00
2018-06-27T08:57:24.661Z,11.80
2018-06-27T08:58:24.648Z,11.70
2018-06-27T09:01:24.671Z,12.60
2018-06-27T09:02:24.674Z,11.00
2018-06-27T09:03:24.664Z,13.90
2018-06-27T09:04:24.667Z,10.70
2018-06-27T09:05:24.679Z,10.40
2018-06-27T09:06:24.690Z,10.20
2018-06-27T09:07:24.677Z,13.40
2018-06-27T09:08:24.703Z,13.10
2018-06-27T09:09:24.696Z,14.80
2018-06-27T09:10:24.708Z,12.10
2018-06-27T09:11:24.700Z,12.00
2018-06-27T09:12:24.692Z,11.40
2018-06-27T09:13:24.897Z,11.30
2018-06-27T09:14:24.696Z,10.60
2018-06-27T09:15:24.710Z,10.20
2018-06-27T09:16:24.716Z,10.10
2018-06-27T09:17:24.707Z,10.30
2018-06-27T09:18:24.707Z,10.00
2018-06-27T09:19:24.931Z,16.70
2018-06-27T09:20:24.918Z,23.00
2018-06-27T09:21:24.718Z,12.90
2018-06-27T09:22:24.925Z,9.70
2018-06-27T09:23:24.735Z,10.80
2018-06-27T09:24:24.939Z,11.10
2018-06-27T09:25:24.745Z,10.30
2018-06-27T09:26:24.949Z,10.00
2018-06-27T09:27:24.938Z,9.90
2018-06-27T09:28:24.942Z,10.40
2018-06-27T09:29:24.742Z,10.10
2018-06-27T09:30:24.768Z,11.60
2018-06-27T09:31:24.749Z,9.70
2018-06-27T09:32:24.968Z,11.60
2018-06-27T09:33:24.753Z,13.40
2018-06-27T09:34:24.759Z,15.00
2018-06-27T09:35:24.963Z,10.30
2018-06-27T09:36:24.762Z,11.20
2018-06-27T09:37:24.775Z,11.80
2018-06-27T09:38:24.769Z,14.50
2018-06-27T09:39:24.772Z,8.80
2018-06-27T09:40:24.996Z,8.90
2018-06-27T09:41:24.779Z,10.60
2018-06-27T09:42:24.983Z,11.20
2018-06-27T09:43:24.784Z,12.50
2018-06-27T09:44:24.787Z,12.40
2018-06-27T09:45:25.006Z,15.30
2018-06-27T09:46:24.807Z,7.20
2018-06-27T09:47:24.817Z,6.80
2018-06-27T09:48:24.802Z,7.80
2018-06-27T09:49:25.016Z,6.40
2018-06-27T09:50:24.871Z,6.70
2018-06-27T09:51:24.810Z,5.80
2018-06-27T09:52:25.034Z,6.40
2018-06-27T09:53:24.817Z,6.40
2018-06-27T09:54:24.831Z,6.20
2018-06-27T09:55:24.838Z,7.00
2018-06-27T09:56:24.833Z,6.50
2018-06-27T09:57:25.044Z,6.80
2018-06-27T09:58:24.842Z,7.00
2018-06-27T09:59:24.847Z,5.60
2018-06-27T10:00:25.044Z,5.90
2018-06-27T10:01:24.852Z,8.40
2018-06-27T10:02:25.050Z,5.90
2018-06-27T10:03:24.864Z,5.60
2018-06-27T10:04:24.853Z,5.70
2018-06-27T10:05:24.864Z,6.10
2018-06-27T10:06:24.877Z,12.70
2018-06-27T10:07:25.092Z,6.00
2018-06-27T10:08:24.878Z,6.00
2018-06-27T10:09:24.868Z,6.20
2018-06-27T10:10:24.909Z,8.00
2018-06-27T10:11:25.090Z,8.30
2018-06-27T10:12:24.888Z,6.10
2018-06-27T10:13:25.094Z,10.60
2018-06-27T10:14:24.888Z,8.80
2018-06-27T10:15:24.900Z,16.20
2018-06-27T10:16:24.893Z,8.00
2018-06-27T10:17:24.896Z,9.60
2018-06-27T10:18:24.956Z,7.40
2018-06-27T10:19:25.125Z,13.50
2018-06-27T10:20:24.910Z,12.70
2018-06-27T10:21:24.921Z,16.30
2018-06-27T10:22:24.982Z,9.70
2018-06-27T10:23:24.930Z,7.60
2018-06-27T10:24:24.919Z,8.20
2018-06-27T10:25:24.925Z,10.10
2018-06-27T10:26:24.927Z,11.30
2018-06-27T10:27:24.932Z,9.00
2018-06-27T10:28:24.951Z,10.80
2018-06-27T10:29:24.941Z,24.40
2018-06-27T10:30:24.944Z,19.10
2018-06-27T10:31:24.959Z,13.30
2018-06-27T10:32:24.948Z,9.90
2018-06-27T10:33:24.979Z,12.90
2018-06-27T10:34:24.967Z,23.80
2018-06-27T10:35:25.163Z,12.30
2018-06-27T10:36:24.966Z,9.00
2018-06-27T10:37:24.997Z,8.80
2018-06-27T10:38:24.985Z,7.80
2018-06-27T10:39:24.979Z,7.80
2018-06-27T10:40:24.993Z,30.90
2018-06-27T10:41:24.992Z,21.10
2018-06-27T10:42:24.989Z,11.30
2018-06-27T10:43:24.991Z,13.20
2018-06-27T10:44:25.011Z,7.00
2018-06-27T10:45:24.996Z,7.10
2018-06-27T10:46:25.013Z,6.80
2018-06-27T10:47:25.216Z,9.10
2018-06-27T10:48:25.235Z,6.70
2018-06-27T10:49:25.013Z,8.20
2018-06-27T10:50:25.018Z,7.70
2018-06-27T10:51:25.025Z,5.10
2018-06-27T10:52:25.239Z,7.70
2018-06-27T10:53:25.034Z,4.40
2018-06-27T10:54:25.054Z,4.40
2018-06-27T10:55:25.241Z,4.70
2018-06-27T10:56:25.043Z,12.60
2018-06-27T10:57:25.249Z,9.10
2018-06-27T10:58:25.050Z,5.50
2018-06-27T10:59:25.257Z,8.80
2018-06-27T11:00:25.058Z,4.70
2018-06-27T11:01:25.074Z,4.80
2018-06-27T11:02:25.283Z,3.90
2018-06-27T11:03:25.072Z,3.40
2018-06-27T11:04:25.287Z,6.50
2018-06-27T11:05:25.120Z,3.70
2018-06-27T11:06:25.286Z,2.90
2018-06-27T11:07:25.292Z,2.60
2018-06-27T11:08:25.297Z,4.90
2018-06-27T11:09:25.099Z,2.80
2018-06-27T11:10:25.115Z,2.40
2018-06-27T11:11:25.325Z,4.10
2018-06-27T11:12:25.111Z,3.60
2018-06-27T11:13:25.113Z,4.80
2018-06-27T11:14:25.144Z,3.20
2018-06-27T11:15:25.337Z,2.80
2018-06-27T11:16:25.131Z,3.20
2018-06-27T11:17:25.143Z,3.00
2018-06-27T11:18:25.148Z,3.40
2018-06-27T11:19:25.162Z,2.60
2018-06-27T11:20:25.180Z,3.70
2018-06-27T11:21:25.161Z,2.50
2018-06-27T11:22:25.157Z,5.00
2018-06-27T11:23:25.159Z,3.80
2018-06-27T11:24:25.174Z,4.10
2018-06-27T11:25:25.168Z,3.20
2018-06-27T11:26:25.173Z,3.30
2018-06-27T11:27:25.190Z,4.10
2018-06-27T11:28:25.181Z,3.90
2018-06-27T11:29:25.226Z,6.90
2018-06-27T11:30:25.193Z,2.70
2018-06-27T11:31:25.211Z,3.70
2018-06-27T11:32:25.203Z,4.90
2018-06-27T11:33:25.217Z,3.50
2018-06-27T11:34:25.431Z,3.40
2018-06-27T11:35:25.215Z,3.60
2018-06-27T11:36:25.222Z,2.60
2018-06-27T11:37:25.434Z,4.90
2018-06-27T11:38:25.289Z,4.80
2018-06-27T11:39:25.235Z,2.60
2018-06-27T11:40:25.258Z,5.10
2018-06-27T11:41:25.253Z,5.90
2018-06-27T11:42:25.461Z,7.80
2018-06-27T11:43:25.454Z,12.40
2018-06-27T11:44:25.274Z,4.30
2018-06-27T11:45:25.265Z,7.90
2018-06-27T11:46:25.264Z,7.00
2018-06-27T11:47:25.283Z,3.70
2018-06-27T11:48:25.480Z,4.20
2018-06-27T11:49:25.491Z,3.40
2018-06-27T11:50:25.284Z,7.50
2018-06-27T11:51:25.293Z,4.20
2018-06-27T11:52:25.296Z,5.90
2018-06-27T11:53:25.330Z,2.50
2018-06-27T11:54:25.532Z,4.80
2018-06-27T11:55:25.309Z,4.50
2018-06-27T11:56:25.327Z,5.60
2018-06-27T11:57:25.317Z,2.10
2018-06-27T11:58:25.337Z,2.90
2018-06-27T11:59:25.338Z,2.70
2018-06-27T12:00:25.345Z,4.00
2018-06-27T12:01:25.540Z,3.40
2018-06-27T12:02:25.341Z,6.10
2018-06-27T12:03:25.548Z,4.00
2018-06-27T12:04:25.365Z,3.60
2018-06-27T12:05:25.365Z,5.10
2018-06-27T12:06:25.363Z,7.50
2018-06-27T12:07:25.366Z,4.20
2018-06-27T12:08:25.433Z,5.10
2018-06-27T12:09:25.404Z,3.30
2018-06-27T12:10:25.379Z,5.30
2018-06-27T12:11:25.394Z,4.60
2018-06-27T12:12:25.390Z,7.00
2018-06-27T12:13:25.597Z,7.30
2018-06-27T12:14:25.403Z,4.10
2018-06-27T12:15:25.411Z,3.50
2018-06-27T12:16:25.410Z,6.00
2018-06-27T12:17:25.414Z,2.80
2018-06-27T12:18:25.621Z,2.80
2018-06-27T12:19:25.633Z,9.80
2018-06-27T12:20:25.430Z,14.00
2018-06-27T12:21:25.433Z,6.00
2018-06-27T12:22:25.443Z,3.60
2018-06-27T12:23:25.446Z,3.50
2018-06-27T12:24:25.648Z,2.90
2018-06-27T12:25:25.668Z,1.90
2018-06-27T12:26:25.466Z,4.40
2018-06-27T12:27:25.476Z,1.60
2018-06-27T12:28:25.477Z,3.90
2018-06-27T12:29:25.564Z,2.70
2018-06-27T12:30:25.690Z,2.40
2018-06-27T12:31:25.482Z,3.70
2018-06-27T12:32:25.752Z,2.80
2018-06-27T12:33:25.493Z,3.10
2018-06-27T12:34:25.499Z,2.70
2018-06-27T12:35:25.507Z,3.00
2018-06-27T12:36:25.712Z,6.70
2018-06-27T12:37:25.512Z,2.00
2018-06-27T12:38:25.519Z,2.50
2018-06-27T12:39:25.523Z,3.80
2018-06-27T12:40:25.730Z,3.30
2018-06-27T12:41:25.734Z,4.80
2018-06-27T12:42:25.542Z,2.10
2018-06-27T12:43:25.542Z,3.60
2018-06-27T12:44:25.632Z,5.50
2018-06-27T12:45:25.556Z,4.30
2018-06-27T12:46:25.770Z,3.50
2018-06-27T12:47:25.566Z,2.80
2018-06-27T12:48:25.791Z,3.60
2018-06-27T12:49:25.777Z,7.40
2018-06-27T12:50:25.797Z,3.90
2018-06-27T12:51:25.595Z,3.40
2018-06-27T12:52:25.592Z,3.40
2018-06-27T12:53:25.595Z,3.90
2018-06-27T12:54:25.804Z,3.70
2018-06-27T12:55:25.603Z,3.10
2018-06-27T12:56:25.621Z,2.20
2018-06-27T12:57:25.613Z,2.40
2018-06-27T12:58:25.621Z,2.60
2018-06-27T12:59:25.829Z,3.60
2018-06-27T13:00:25.840Z,2.60